createdAt,value
2018-03-10T00:01:06.790Z,57.00
2018-03-10T00:03:34.627Z,57.00
2018-03-10T00:06:02.932Z,57.00
2018-03-10T00:08:30.469Z,57.00
2018-03-10T00:11:00.871Z,56.90
2018-03-10T00:13:28.424Z,56.90
2018-03-10T00:15:56.771Z,57.00
2018-03-10T00:18:24.296Z,56.90
2018-03-10T00:20:52.489Z,56.90
2018-03-10T00:23:20.042Z,57.00
2018-03-10T00:25:47.626Z,57.00
2018-03-10T00:28:31.474Z,57.00
2018-03-10T00:30:59.021Z,57.10
2018-03-10T00:33:26.558Z,57.40
2018-03-10T00:35:54.772Z,57.70
2018-03-10T00:38:23.214Z,57.90
2018-03-10T00:40:50.833Z,58.10
2018-03-10T00:43:18.467Z,58.30
2018-03-10T00:45:46.511Z,58.30
2018-03-10T00:48:14.059Z,58.30
2018-03-10T00:50:42.455Z,58.30
2018-03-10T00:53:10.032Z,58.30
2018-03-10T00:55:38.302Z,58.30
2018-03-10T00:58:06.768Z,58.40
2018-03-10T01:00:35.295Z,58.40
2018-03-10T01:03:02.832Z,58.40
2018-03-10T01:05:30.370Z,58.40
2018-03-10T01:07:58.645Z,58.50
2018-03-10T01:10:26.190Z,58.60
2018-03-10T01:12:54.509Z,58.60
2018-03-10T01:15:22.116Z,58.60
2018-03-10T01:17:49.704Z,58.60
2018-03-10T01:20:17.239Z,58.60
2018-03-10T01:22:45.658Z,58.80
2018-03-10T01:25:13.247Z,58.70
2018-03-10T01:27:40.765Z,58.60
2018-03-10T01:30:09.157Z,58.60
2018-03-10T01:32:37.521Z,58.60
2018-03-10T01:35:07.237Z,58.60
2018-03-10T01:37:34.801Z,58.60
2018-03-10T01:40:02.347Z,58.50
2018-03-10T01:42:30.141Z,58.50
2018-03-10T01:44:57.699Z,58.60
2018-03-10T01:47:25.462Z,58.60
2018-03-10T01:49:53.102Z,58.50
2018-03-10T01:52:21.732Z,58.60
2018-03-10T01:54:49.273Z,58.60
2018-03-10T01:57:17.462Z,58.60
2018-03-10T01:59:46.123Z,58.60
2018-03-10T02:02:14.295Z,58.80
2018-03-10T02:04:41.878Z,58.40
2018-03-10T02:07:11.044Z,58.20
2018-03-10T02:09:38.586Z,58.20
2018-03-10T02:12:06.137Z,58.20
2018-03-10T02:14:34.539Z,58.00
2018-03-10T02:17:02.119Z,58.00
2018-03-10T02:19:29.709Z,57.90
2018-03-10T02:21:57.832Z,57.90
2018-03-10T02:24:25.449Z,57.90
2018-03-10T02:26:52.990Z,57.90
2018-03-10T02:29:20.548Z,57.80
2018-03-10T02:31:48.431Z,57.60
2018-03-10T02:34:16.291Z,57.70
2018-03-10T02:36:46.166Z,57.70
2018-03-10T02:39:14.144Z,57.70
2018-03-10T02:41:42.477Z,57.60
2018-03-10T02:44:10.043Z,57.80
2018-03-10T02:46:38.390Z,58.00
2018-03-10T02:49:07.160Z,58.00
2018-03-10T02:51:35.492Z,58.10
2018-03-10T02:54:03.860Z,58.10
2018-03-10T02:56:32.273Z,58.10
2018-03-10T02:58:59.814Z,58.10
2018-03-10T03:01:28.167Z,58.20
2018-03-10T03:03:56.558Z,58.20
2018-03-10T03:06:25.697Z,58.20
2018-03-10T03:08:53.384Z,58.20
2018-03-10T03:11:21.845Z,58.10
2018-03-10T03:13:49.406Z,58.10
2018-03-10T03:16:16.995Z,58.00
2018-03-10T03:18:45.346Z,58.00
2018-03-10T03:21:12.911Z,57.90
2018-03-10T03:23:43.307Z,57.80
2018-03-10T03:26:10.880Z,57.70
2018-03-10T03:28:38.458Z,57.70
2018-03-10T03:31:07.131Z,57.60
2018-03-10T03:33:35.556Z,57.60
2018-03-10T03:36:03.116Z,57.70
2018-03-10T03:38:30.673Z,57.70
2018-03-10T03:40:59.577Z,57.80
2018-03-10T03:43:27.141Z,58.60
2018-03-10T03:45:54.767Z,58.70
2018-03-10T03:48:22.332Z,58.00
2018-03-10T03:50:49.963Z,58.80
2018-03-10T03:53:17.477Z,58.80
2018-03-10T03:55:45.942Z,58.80
2018-03-10T03:58:13.471Z,58.90
2018-03-10T04:00:41.030Z,58.80
2018-03-10T04:03:09.510Z,58.70
2018-03-10T04:05:37.042Z,58.60
2018-03-10T04:08:05.467Z,58.60
2018-03-10T04:10:33.419Z,58.60
2018-03-10T04:13:01.721Z,58.60
2018-03-10T04:15:29.970Z,58.60
2018-03-10T04:17:57.551Z,58.60
2018-03-10T04:20:25.129Z,58.60
2018-03-10T04:22:52.992Z,59.10
2018-03-10T04:25:20.624Z,59.40
2018-03-10T04:27:48.230Z,59.70
2018-03-10T04:30:15.834Z,59.80
2018-03-10T04:32:44.175Z,59.70
2018-03-10T04:35:12.498Z,59.80
2018-03-10T04:37:40.033Z,59.80
2018-03-10T04:40:07.951Z,59.60
2018-03-10T04:42:35.576Z,59.50
2018-03-10T04:45:05.578Z,59.50
2018-03-10T04:47:33.272Z,59.50
2018-03-10T04:50:01.285Z,59.50
2018-03-10T04:52:28.827Z,59.50
2018-03-10T04:54:56.419Z,59.50
2018-03-10T04:57:24.704Z,59.50
2018-03-10T04:59:52.254Z,59.60
2018-03-10T05:02:20.595Z,59.60
2018-03-10T05:04:49.179Z,59.60
2018-03-10T05:07:16.732Z,60.00
2018-03-10T05:09:45.335Z,59.80
2018-03-10T05:12:13.463Z,59.90
2018-03-10T05:14:41.005Z,59.80
2018-03-10T05:17:10.195Z,59.70
2018-03-10T05:19:38.418Z,59.70
2018-03-10T05:22:05.986Z,59.80
2018-03-10T05:24:34.082Z,59.70
2018-03-10T05:27:02.226Z,59.50
2018-03-10T05:29:29.789Z,59.80
2018-03-10T05:31:57.549Z,59.90
2018-03-10T05:34:26.307Z,59.90
2018-03-10T05:36:53.833Z,59.70
2018-03-10T05:39:21.433Z,59.70
2018-03-10T05:41:49.009Z,59.70
2018-03-10T05:44:16.604Z,59.80
2018-03-10T05:46:45.919Z,60.00
2018-03-10T05:49:15.668Z,60.00
2018-03-10T05:51:43.213Z,59.80
2018-03-10T05:54:11.407Z,60.10
2018-03-10T05:56:38.971Z,60.20
2018-03-10T05:59:07.345Z,60.10
2018-03-10T06:01:35.728Z,60.30
2018-03-10T06:04:03.301Z,60.30
2018-03-10T06:06:30.881Z,60.30
2018-03-10T06:08:59.357Z,61.10
2018-03-10T06:11:27.834Z,60.70
2018-03-10T06:13:55.367Z,61.20
2018-03-10T06:16:23.013Z,60.70
2018-03-10T06:18:50.610Z,60.70
2018-03-10T06:21:18.632Z,60.80
2018-03-10T06:23:47.987Z,60.60
2018-03-10T06:26:16.519Z,60.60
2018-03-10T06:28:45.019Z,60.20
2018-03-10T06:31:13.467Z,60.20
2018-03-10T06:33:41.756Z,59.90
2018-03-10T06:36:10.168Z,59.90
2018-03-10T06:38:37.708Z,59.60
2018-03-10T06:41:05.545Z,59.50
2018-03-10T06:43:34.588Z,59.10
2018-03-10T06:46:02.109Z,59.10
2018-03-10T06:48:30.438Z,58.80
2018-03-10T06:50:57.970Z,58.80
2018-03-10T06:53:25.668Z,58.80
2018-03-10T06:55:54.741Z,58.80
2018-03-10T06:58:22.508Z,58.90
2018-03-10T07:00:50.080Z,58.90
2018-03-10T07:03:17.951Z,58.70
2018-03-10T07:05:48.358Z,59.10
2018-03-10T07:08:16.804Z,58.50
2018-03-10T07:10:44.856Z,57.70
2018-03-10T07:13:12.394Z,57.40
2018-03-10T07:15:40.515Z,57.20
2018-03-10T07:18:08.820Z,57.20
2018-03-10T07:20:36.397Z,57.20
2018-03-10T07:23:04.559Z,57.10
2018-03-10T07:25:32.096Z,57.00
2018-03-10T07:27:59.676Z,57.00
2018-03-10T07:30:27.556Z,57.10
2018-03-10T07:32:56.004Z,57.20
2018-03-10T07:35:23.537Z,57.30
2018-03-10T07:37:51.365Z,57.30
2018-03-10T07:40:19.855Z,57.40
2018-03-10T07:42:47.458Z,57.10
2018-03-10T07:45:16.698Z,57.20
2018-03-10T07:47:44.241Z,57.20
2018-03-10T07:50:12.236Z,57.20
2018-03-10T07:52:39.765Z,57.20
2018-03-10T07:55:08.778Z,57.10
2018-03-10T07:57:36.367Z,57.10
2018-03-10T08:00:06.748Z,56.90
2018-03-10T08:02:34.324Z,56.70
2018-03-10T08:05:01.882Z,56.50
2018-03-10T08:07:29.473Z,56.50
2018-03-10T08:09:57.017Z,56.50
2018-03-10T08:12:25.401Z,56.60
2018-03-10T08:14:52.975Z,56.50
2018-03-10T08:17:21.564Z,56.60
2018-03-10T08:19:50.617Z,56.70
2018-03-10T08:22:18.158Z,56.70
2018-03-10T08:24:45.736Z,57.00
2018-03-10T08:27:13.326Z,56.90
2018-03-10T08:29:40.908Z,56.90
2018-03-10T08:32:08.616Z,56.80
2018-03-10T08:34:36.178Z,56.90
2018-03-10T08:37:03.755Z,56.90
2018-03-10T08:39:31.433Z,57.10
2018-03-10T08:41:59.854Z,57.10
2018-03-10T08:44:27.433Z,57.10
2018-03-10T08:46:56.697Z,57.10
2018-03-10T08:49:24.722Z,57.00
2018-03-10T08:51:52.264Z,57.10
2018-03-10T08:54:20.682Z,57.10
2018-03-10T08:56:49.119Z,57.00
2018-03-10T08:59:16.961Z,56.90
2018-03-10T09:01:45.388Z,56.90
2018-03-10T09:04:13.695Z,56.80
2018-03-10T09:06:42.056Z,56.90
2018-03-10T09:09:10.307Z,56.80
2018-03-10T09:11:37.867Z,56.70
2018-03-10T09:14:05.652Z,56.60
2018-03-10T09:16:34.034Z,56.50
2018-03-10T09:19:01.903Z,56.50
2018-03-10T09:21:29.520Z,56.60
2018-03-10T09:23:57.080Z,56.50
2018-03-10T09:26:24.634Z,56.60
2018-03-10T09:28:52.530Z,56.60
2018-03-10T09:31:20.087Z,56.50
2018-03-10T09:33:47.657Z,56.30
2018-03-10T09:36:15.581Z,56.10
2018-03-10T09:38:43.880Z,56.10
2018-03-10T09:41:11.965Z,56.10
2018-03-10T09:43:39.583Z,56.10
2018-03-10T09:46:09.575Z,55.80
2018-03-10T09:48:37.137Z,55.80
2018-03-10T09:51:04.860Z,55.80
2018-03-10T09:53:33.666Z,55.60
2018-03-10T09:56:02.066Z,55.60
2018-03-10T09:58:32.639Z,55.60
2018-03-10T10:01:02.940Z,55.30
2018-03-10T10:03:30.796Z,55.20
2018-03-10T10:05:58.323Z,55.10
2018-03-10T10:08:28.419Z,55.20
2018-03-10T10:10:56.846Z,55.00
2018-03-10T10:13:24.505Z,54.80
2018-03-10T10:15:52.771Z,54.70
2018-03-10T10:18:21.279Z,54.50
2018-03-10T10:20:48.827Z,54.50
2018-03-10T10:23:17.282Z,54.10
2018-03-10T10:25:44.868Z,53.70
2018-03-10T10:28:12.413Z,53.80
2018-03-10T10:30:40.878Z,53.80
2018-03-10T10:33:09.441Z,53.70
2018-03-10T10:35:39.440Z,53.30
2018-03-10T10:38:06.995Z,53.20
2018-03-10T10:40:35.325Z,53.20
2018-03-10T10:43:02.901Z,53.20
2018-03-10T10:45:31.384Z,53.20
2018-03-10T10:48:00.190Z,52.70
2018-03-10T10:50:27.780Z,52.50
2018-03-10T10:52:56.151Z,52.70
2018-03-10T10:55:24.530Z,52.80
2018-03-10T10:57:52.578Z,52.80
2018-03-10T11:00:25.945Z,52.90
2018-03-10T11:02:54.939Z,52.80
2018-03-10T11:07:56.731Z,52.10
2018-03-10T11:10:24.588Z,52.00
2018-03-10T11:12:52.200Z,51.60
2018-03-10T11:15:20.323Z,51.70
2018-03-10T11:17:47.850Z,51.70
2018-03-10T11:20:16.375Z,51.50
2018-03-10T11:22:43.913Z,51.20
2018-03-10T11:25:11.602Z,51.10
2018-03-10T11:27:39.238Z,51.00
2018-03-10T11:30:08.573Z,51.40
2018-03-10T11:32:36.184Z,51.30
2018-03-10T11:35:05.612Z,51.60
2018-03-10T11:37:33.520Z,51.70
2018-03-10T11:40:01.868Z,51.90
2018-03-10T11:42:30.209Z,51.90
2018-03-10T11:44:57.741Z,51.80
2018-03-10T11:47:25.534Z,51.50
2018-03-10T11:49:53.448Z,51.60
2018-03-10T11:52:21.999Z,51.70
2018-03-10T11:54:49.524Z,51.70
2018-03-10T11:57:17.842Z,51.60
2018-03-10T11:59:46.354Z,51.50
2018-03-10T12:02:13.891Z,51.40
2018-03-10T12:04:41.499Z,51.50
2018-03-10T12:07:10.634Z,51.60
2018-03-10T12:09:38.215Z,51.70
2018-03-10T12:12:05.830Z,51.80
2018-03-10T12:14:35.559Z,51.60
2018-03-10T12:17:04.788Z,51.60
2018-03-10T12:19:32.955Z,51.70
2018-03-10T12:22:00.593Z,51.80
2018-03-10T12:24:28.178Z,51.80
2018-03-10T12:26:55.775Z,51.50
2018-03-10T12:29:23.370Z,51.50
2018-03-10T12:31:51.048Z,51.10
2018-03-10T12:34:18.660Z,51.10
2018-03-10T12:36:46.229Z,51.10
2018-03-10T12:39:16.211Z,51.10
2018-03-10T12:41:43.772Z,51.10
2018-03-10T12:44:11.373Z,51.00
2018-03-10T12:46:40.015Z,50.60
2018-03-10T12:49:08.059Z,50.60
2018-03-10T12:51:35.607Z,50.30
2018-03-10T12:54:03.772Z,50.40
2018-03-10T12:56:31.795Z,50.30
2018-03-10T12:58:59.933Z,50.20
2018-03-10T13:01:28.451Z,50.20
2018-03-10T13:03:56.043Z,50.30
2018-03-10T13:06:24.375Z,50.20
2018-03-10T13:08:52.308Z,50.20
2018-03-10T13:11:19.938Z,50.00
2018-03-10T13:13:47.543Z,49.80
2018-03-10T13:16:16.848Z,50.00
2018-03-10T13:18:44.453Z,49.90
2018-03-10T13:21:13.622Z,49.60
2018-03-10T13:23:41.825Z,49.60
2018-03-10T13:26:09.409Z,49.60
2018-03-10T13:28:37.835Z,49.60
2018-03-10T13:31:06.955Z,49.70
2018-03-10T13:33:35.261Z,49.60
2018-03-10T13:36:02.855Z,49.70
2018-03-10T13:38:30.711Z,49.80
2018-03-10T13:40:58.306Z,49.80
2018-03-10T13:43:26.066Z,49.60
2018-03-10T13:45:53.659Z,49.60
2018-03-10T13:48:21.207Z,49.50
2018-03-10T13:50:49.764Z,49.40
2018-03-10T13:53:17.319Z,49.30
2018-03-10T13:55:44.882Z,49.10
2018-03-10T13:58:12.956Z,49.00
2018-03-10T14:00:40.521Z,49.20
2018-03-10T14:03:19.821Z,49.10
2018-03-10T14:05:47.351Z,49.10
2018-03-10T14:08:16.255Z,49.10
2018-03-10T14:10:44.708Z,49.40
2018-03-10T14:13:12.241Z,49.50
2018-03-10T14:15:39.824Z,49.70
2018-03-10T14:18:07.799Z,49.80
2018-03-10T14:20:35.410Z,49.80
2018-03-10T14:23:02.979Z,49.70
2018-03-10T14:25:31.169Z,49.60
2018-03-10T14:27:58.812Z,49.60
2018-03-10T14:30:27.120Z,49.60
2018-03-10T14:32:55.478Z,49.70
2018-03-10T14:35:23.008Z,50.60
2018-03-10T14:37:51.304Z,50.40
2018-03-10T14:40:19.338Z,50.50
2018-03-10T14:42:46.892Z,50.70
2018-03-10T14:45:15.139Z,50.80
2018-03-10T14:47:43.176Z,50.90
2018-03-10T14:50:11.480Z,51.00
2018-03-10T14:52:39.713Z,51.10
2018-03-10T14:55:09.257Z,51.10
2018-03-10T14:57:36.819Z,51.10
2018-03-10T15:00:08.185Z,51.20
2018-03-10T15:02:35.709Z,51.20
2018-03-10T15:05:04.061Z,51.20
2018-03-10T15:07:32.684Z,51.10
2018-03-10T15:10:00.236Z,51.10
2018-03-10T15:12:28.433Z,51.20
2018-03-10T15:14:56.104Z,51.10
2018-03-10T15:17:23.663Z,51.20
2018-03-10T15:19:51.240Z,51.40
2018-03-10T15:22:18.960Z,51.70
2018-03-10T15:24:46.572Z,51.80
2018-03-10T15:27:14.217Z,51.80
2018-03-10T15:29:41.828Z,51.80
2018-03-10T15:32:10.466Z,52.00
2018-03-10T15:34:38.033Z,52.10
2018-03-10T15:37:06.401Z,52.40
2018-03-10T15:39:34.420Z,52.40
2018-03-10T15:42:01.963Z,52.50
2018-03-10T15:44:30.389Z,52.50
2018-03-10T15:46:57.936Z,52.50
2018-03-10T15:49:26.418Z,52.50
2018-03-10T15:51:54.020Z,52.60
2018-03-10T15:54:21.557Z,52.70
2018-03-10T15:56:49.097Z,52.80
2018-03-10T15:59:17.733Z,53.00
2018-03-10T16:01:45.301Z,53.10
2018-03-10T16:04:14.079Z,53.40
2018-03-10T16:06:43.181Z,53.60
2018-03-10T16:09:10.742Z,53.60
2018-03-10T16:11:39.811Z,53.80
2018-03-10T16:14:07.631Z,53.70
2018-03-10T16:16:35.228Z,54.00
2018-03-10T16:19:03.499Z,54.20
2018-03-10T16:21:31.451Z,54.20
2018-03-10T16:23:59.000Z,54.30
2018-03-10T16:26:27.499Z,54.30
2018-03-10T16:28:55.275Z,54.40
2018-03-10T16:31:22.846Z,54.50
2018-03-10T16:33:50.688Z,54.60
2018-03-10T16:36:18.935Z,54.50
2018-03-10T16:38:46.496Z,54.50
2018-03-10T16:41:14.083Z,54.70
2018-03-10T16:43:41.644Z,54.50
2018-03-10T16:46:09.344Z,54.50
2018-03-10T16:48:36.872Z,54.50
2018-03-10T16:51:04.527Z,54.50
2018-03-10T16:53:32.729Z,54.40
2018-03-10T16:56:00.304Z,54.50
2018-03-10T16:58:27.846Z,54.50
2018-03-10T17:00:56.059Z,54.50
2018-03-10T17:03:23.647Z,54.40
2018-03-10T17:05:51.688Z,54.50
2018-03-10T17:08:19.714Z,54.60
2018-03-10T17:10:47.268Z,54.60
2018-03-10T17:13:14.805Z,54.60
2018-03-10T17:15:42.429Z,54.60
2018-03-10T17:18:10.596Z,54.60
2018-03-10T17:20:38.947Z,55.30
2018-03-10T17:23:07.480Z,54.70
2018-03-10T17:25:35.178Z,54.90
2018-03-10T17:28:03.581Z,55.00
2018-03-10T17:30:31.188Z,54.90
2018-03-10T17:32:58.815Z,55.20
2018-03-10T17:35:26.847Z,54.90
2018-03-10T17:37:58.862Z,54.90
2018-03-10T17:40:27.832Z,55.00
2018-03-10T17:42:55.582Z,54.80
2018-03-10T17:45:23.120Z,54.80
2018-03-10T17:47:51.358Z,54.70
2018-03-10T17:50:19.684Z,54.50
2018-03-10T17:52:47.703Z,54.50
2018-03-10T17:55:15.280Z,54.50
2018-03-10T17:57:43.644Z,54.40
2018-03-10T18:00:12.283Z,54.30
2018-03-10T18:02:39.855Z,54.30
2018-03-10T18:05:08.755Z,54.70
2018-03-10T18:07:37.043Z,54.70
2018-03-10T18:10:07.349Z,55.00
2018-03-10T18:12:34.942Z,55.30
2018-03-10T18:15:03.357Z,55.50
2018-03-10T18:17:30.918Z,55.40
2018-03-10T18:19:59.422Z,55.40
2018-03-10T18:22:26.964Z,55.60
2018-03-10T18:24:54.503Z,55.60
2018-03-10T18:27:22.850Z,55.80
2018-03-10T18:29:52.010Z,55.70
2018-03-10T18:32:19.671Z,55.80
2018-03-10T18:34:47.284Z,55.90
2018-03-10T18:37:14.840Z,55.90
2018-03-10T18:39:42.831Z,56.30
2018-03-10T18:42:12.273Z,57.00
2018-03-10T18:44:39.829Z,57.00
2018-03-10T18:47:08.818Z,57.00
2018-03-10T18:49:36.987Z,57.10
2018-03-10T18:52:04.533Z,57.20
2018-03-10T18:54:32.756Z,57.30
2018-03-10T18:57:00.281Z,58.00
2018-03-10T18:59:28.260Z,57.50
2018-03-10T19:01:58.886Z,57.60
2018-03-10T19:04:27.031Z,57.60
2018-03-10T19:06:54.573Z,57.70
2018-03-10T19:09:24.088Z,57.80
2018-03-10T19:11:52.700Z,58.00
2018-03-10T19:14:20.491Z,57.90
2018-03-10T19:16:48.873Z,58.10
2018-03-10T19:19:16.438Z,58.10
2018-03-10T19:21:44.020Z,58.30
2018-03-10T19:24:13.042Z,58.40
2018-03-10T19:26:40.662Z,58.40
2018-03-10T19:29:09.208Z,58.40
2018-03-10T19:31:36.744Z,58.30
2018-03-10T19:34:04.820Z,58.60
2018-03-10T19:36:32.647Z,58.70
2018-03-10T19:39:00.985Z,58.70
2018-03-10T19:41:28.520Z,58.70
2018-03-10T19:43:56.916Z,58.90
2018-03-10T19:46:24.551Z,58.80
2018-03-10T19:48:53.313Z,58.90
2018-03-10T19:51:21.495Z,58.80
2018-03-10T19:53:50.356Z,58.80
2018-03-10T19:56:18.712Z,58.90
2018-03-10T19:58:46.261Z,59.00
2018-03-10T20:01:13.800Z,59.00
2018-03-10T20:03:42.131Z,59.20
2018-03-10T20:06:09.660Z,59.20
2018-03-10T20:08:37.365Z,58.80
2018-03-10T20:11:05.139Z,59.40
2018-03-10T20:26:27.789Z,59.20
2018-03-10T20:28:55.713Z,60.60
2018-03-10T20:31:23.253Z,60.60
2018-03-10T20:33:50.821Z,60.60
2018-03-10T20:36:18.568Z,60.40
2018-03-10T20:38:46.123Z,60.40
2018-03-10T20:41:13.677Z,60.10
2018-03-10T20:43:41.253Z,59.80
2018-03-10T20:46:08.779Z,60.10
2018-03-10T20:48:38.630Z,60.70
2018-03-10T20:51:06.719Z,61.10
2018-03-10T20:53:34.332Z,60.80
2018-03-10T20:56:01.890Z,60.70
2018-03-10T20:58:31.041Z,60.40
2018-03-10T21:00:58.644Z,60.30
2018-03-10T21:03:27.561Z,60.20
2018-03-10T21:05:55.734Z,60.10
2018-03-10T21:08:23.341Z,60.00
2018-03-10T21:10:50.885Z,60.10
2018-03-10T21:13:19.274Z,60.20
2018-03-10T21:15:47.588Z,60.10
2018-03-10T21:18:15.452Z,60.40
2018-03-10T21:20:43.959Z,60.60
2018-03-10T21:23:12.205Z,60.60
2018-03-10T21:25:39.766Z,60.60
2018-03-10T21:28:07.437Z,60.80
2018-03-10T21:30:35.599Z,61.30
2018-03-10T21:33:03.288Z,61.00
2018-03-10T21:35:32.730Z,61.20
2018-03-10T21:38:01.736Z,61.20
2018-03-10T21:40:29.275Z,61.30
2018-03-10T21:42:57.542Z,61.10
2018-03-10T21:45:25.995Z,60.80
2018-03-10T21:47:54.384Z,60.60
2018-03-10T21:50:22.089Z,60.60
2018-03-10T21:52:49.864Z,60.40
2018-03-10T21:55:17.397Z,60.30
2018-03-10T21:57:45.014Z,60.00
2018-03-10T22:00:13.566Z,60.00
2018-03-10T22:02:41.147Z,60.20
2018-03-10T22:05:10.332Z,60.50
2018-03-10T22:07:38.690Z,60.20
2018-03-10T22:10:07.983Z,60.00
2018-03-10T22:12:35.525Z,60.00
2018-03-10T22:15:04.336Z,59.90
2018-03-10T22:17:32.521Z,60.00
2018-03-10T22:20:00.092Z,59.90
2018-03-10T22:22:27.857Z,59.90
2018-03-10T22:24:55.418Z,59.70
2018-03-10T22:27:24.126Z,59.70
2018-03-10T22:29:51.704Z,59.80
2018-03-10T22:32:20.982Z,59.70
2018-03-10T22:34:48.519Z,59.80
2018-03-10T22:37:16.106Z,59.80
2018-03-10T22:39:44.453Z,59.70
2018-03-10T22:42:12.046Z,59.70
2018-03-10T22:44:39.577Z,59.90
2018-03-10T22:47:07.865Z,60.00
2018-03-10T22:49:35.455Z,59.90
2018-03-10T22:52:03.782Z,59.90
2018-03-10T22:54:32.677Z,59.90
2018-03-10T22:57:00.198Z,59.90
2018-03-10T22:59:28.570Z,59.90
2018-03-10T23:01:56.719Z,59.90
2018-03-10T23:04:25.413Z,59.90
2018-03-10T23:06:52.999Z,59.90
2018-03-10T23:09:20.558Z,59.80
2018-03-10T23:11:49.584Z,59.90
2018-03-10T23:14:17.164Z,59.90
2018-03-10T23:16:44.719Z,59.80
2018-03-10T23:19:13.154Z,59.80
2018-03-10T23:21:40.692Z,59.80
2018-03-10T23:24:08.240Z,59.80
2018-03-10T23:26:35.850Z,59.80
2018-03-10T23:29:04.317Z,59.90
2018-03-10T23:31:32.017Z,59.80
2018-03-10T23:33:59.634Z,59.90
2018-03-10T23:36:27.739Z,59.90
2018-03-10T23:38:55.278Z,59.90
2018-03-10T23:41:22.858Z,59.90
2018-03-10T23:43:50.423Z,59.90
2018-03-10T23:46:18.182Z,60.00
2018-03-10T23:48:45.780Z,60.00
2018-03-10T23:51:13.727Z,60.00
2018-03-10T23:53:41.297Z,60.10
2018-03-10T23:56:08.862Z,60.20
2018-03-10T23:58:36.539Z,60.20
